createdAt,value
2023-11-13T00:01:54.993Z,97574.09
2023-11-13T00:04:21.525Z,97577.31
2023-11-13T00:06:47.955Z,97568.59
2023-11-13T00:09:14.345Z,97562.31
2023-11-13T00:11:40.718Z,97544.91
2023-11-13T00:14:07.319Z,97553.75
2023-11-13T00:16:33.824Z,97533.94
2023-11-13T00:19:00.435Z,97526.34
2023-11-13T00:21:26.945Z,97531.19
2023-11-13T00:23:53.349Z,97526.19
2023-11-13T00:26:19.816Z,97527.50
2023-11-13T00:28:46.616Z,97531.69
2023-11-13T00:31:14.395Z,97537.19
2023-11-13T00:33:40.971Z,97538.63
2023-11-13T00:36:07.479Z,97548.78
2023-11-13T00:38:33.946Z,97533.13
2023-11-13T00:41:03.320Z,97526.50
2023-11-13T00:43:29.939Z,97547.94
2023-11-13T00:45:56.491Z,97539.69
2023-11-13T00:48:22.897Z,97539.50
2023-11-13T00:50:49.278Z,97536.41
2023-11-13T00:53:15.940Z,97534.50
2023-11-13T00:55:42.347Z,97542.22
2023-11-13T00:58:08.868Z,97557.41
2023-11-13T01:00:37.926Z,97557.59
2023-11-13T01:03:05.501Z,97568.53
2023-11-13T01:05:34.212Z,97559.03
2023-11-13T01:08:00.649Z,97555.66
2023-11-13T01:10:27.449Z,97558.88
2023-11-13T01:12:54.312Z,97546.50
2023-11-13T01:15:21.481Z,97545.72
2023-11-13T01:17:48.040Z,97550.88
2023-11-13T01:20:14.827Z,97553.94
2023-11-13T01:22:41.464Z,97539.25
2023-11-13T01:25:08.511Z,97537.50
2023-11-13T01:27:35.592Z,97543.78
2023-11-13T01:30:01.962Z,97537.97
2023-11-13T01:32:28.364Z,97543.63
2023-11-13T01:34:54.759Z,97544.91
2023-11-13T01:37:24.153Z,97539.72
2023-11-13T01:39:50.665Z,97529.44
2023-11-13T01:42:17.519Z,97523.13
2023-11-13T01:44:43.886Z,97516.16
2023-11-13T01:47:11.457Z,97526.38
2023-11-13T01:49:37.942Z,97517.66
2023-11-13T01:52:04.778Z,97513.94
2023-11-13T01:54:31.203Z,97496.19
2023-11-13T01:56:57.770Z,97478.94
2023-11-13T01:59:24.133Z,97484.59
2023-11-13T02:01:50.624Z,97470.06
2023-11-13T02:04:17.387Z,97468.16
2023-11-13T02:06:45.367Z,97473.81
2023-11-13T02:09:14.618Z,97476.72
2023-11-13T02:11:43.319Z,97486.06
2023-11-13T02:14:09.788Z,97479.44
2023-11-13T02:16:36.314Z,97483.31
2023-11-13T02:19:02.867Z,97480.41
2023-11-13T02:21:29.249Z,97481.22
2023-11-13T02:23:55.855Z,97479.13
2023-11-13T02:26:25.093Z,97481.06
2023-11-13T02:28:52.209Z,97482.81
2023-11-13T02:31:19.031Z,97488.97
2023-11-13T02:33:45.579Z,97479.28
2023-11-13T02:36:11.943Z,97479.63
2023-11-13T02:38:38.361Z,97467.03
2023-11-13T02:41:04.774Z,97468.81
2023-11-13T02:43:31.154Z,97489.44
2023-11-13T02:45:57.683Z,97481.53
2023-11-13T02:48:24.189Z,97490.41
2023-11-13T02:50:53.149Z,97490.41
2023-11-13T02:53:20.348Z,97491.03
2023-11-13T02:55:47.229Z,97482.00
2023-11-13T02:58:13.703Z,97488.31
2023-11-13T03:00:41.490Z,97493.13
2023-11-13T03:03:07.956Z,97504.59
2023-11-13T03:05:34.404Z,97509.25
2023-11-13T03:08:00.862Z,97517.78
2023-11-13T03:10:27.261Z,97531.97
2023-11-13T03:12:53.993Z,97511.19
2023-11-13T03:15:20.462Z,97516.19
2023-11-13T03:17:46.869Z,97512.94
2023-11-13T03:20:13.889Z,97514.88
2023-11-13T03:22:40.422Z,97517.63
2023-11-13T03:25:06.981Z,97509.56
2023-11-13T03:27:33.427Z,97514.53
2023-11-13T03:29:59.810Z,97503.41
2023-11-13T03:32:26.467Z,97512.59
2023-11-13T03:34:53.111Z,97503.75
2023-11-13T03:37:19.498Z,97509.91
2023-11-13T03:39:45.908Z,97506.97
2023-11-13T03:42:12.324Z,97503.78
2023-11-13T03:44:38.750Z,97505.22
2023-11-13T03:47:05.402Z,97497.81
2023-11-13T03:49:31.811Z,97504.91
2023-11-13T03:51:58.238Z,97509.09
2023-11-13T03:54:24.610Z,97501.03
2023-11-13T03:56:51.042Z,97506.34
2023-11-13T03:59:17.514Z,97500.88
2023-11-13T04:01:45.940Z,97498.13
2023-11-13T04:04:12.428Z,97504.59
2023-11-13T04:06:38.867Z,97505.72
2023-11-13T04:09:07.355Z,97519.25
2023-11-13T04:11:33.729Z,97530.72
2023-11-13T04:14:00.102Z,97523.63
2023-11-13T04:16:26.820Z,97531.03
2023-11-13T04:18:53.581Z,97524.44
2023-11-13T04:21:19.975Z,97523.94
2023-11-13T04:23:46.328Z,97527.66
2023-11-13T04:26:12.713Z,97535.69
2023-11-13T04:28:41.241Z,97533.63
2023-11-13T04:31:09.250Z,97529.44
2023-11-13T04:33:36.527Z,97521.38
2023-11-13T04:36:03.274Z,97516.53
2023-11-13T04:38:29.847Z,97511.69
2023-11-13T04:40:56.570Z,97511.69
2023-11-13T04:43:23.040Z,97513.00
2023-11-13T04:45:49.693Z,97527.50
2023-11-13T04:48:16.098Z,97525.22
2023-11-13T04:50:42.462Z,97509.25
2023-11-13T04:53:08.849Z,97513.44
2023-11-13T04:55:35.319Z,97512.13
2023-11-13T04:58:03.237Z,97519.56
2023-11-13T05:00:29.742Z,97513.75
2023-11-13T05:02:56.206Z,97519.53
2023-11-13T05:05:22.577Z,97518.56
2023-11-13T05:07:49.035Z,97522.91
2023-11-13T05:10:15.503Z,97518.09
2023-11-13T05:12:41.975Z,97514.41
2023-11-13T05:15:08.457Z,97510.84
2023-11-13T05:17:38.435Z,97510.19
2023-11-13T05:20:06.410Z,97496.66
2023-11-13T05:22:33.838Z,97486.69
2023-11-13T05:25:00.698Z,97477.63
2023-11-13T05:27:27.082Z,97482.78
2023-11-13T05:29:53.599Z,97476.81
2023-11-13T05:32:20.030Z,97466.59
2023-11-13T05:34:46.435Z,97459.81
2023-11-13T05:37:13.733Z,97450.78
2023-11-13T05:39:40.210Z,97439.66
2023-11-13T05:42:06.617Z,97437.06
2023-11-13T05:44:35.751Z,97432.69
2023-11-13T05:47:02.296Z,97425.75
2023-11-13T05:49:28.880Z,97426.50
2023-11-13T05:51:55.296Z,97421.81
2023-11-13T05:54:21.693Z,97415.53
2023-11-13T05:56:48.222Z,97415.50
2023-11-13T05:59:16.142Z,97413.25
2023-11-13T06:01:42.614Z,97413.09
2023-11-13T06:04:09.064Z,97403.09
2023-11-13T06:06:35.530Z,97397.09
2023-11-13T06:09:01.956Z,97393.69
2023-11-13T06:11:28.825Z,97383.06
2023-11-13T06:13:56.960Z,97390.47
2023-11-13T06:16:23.794Z,97397.56
2023-11-13T06:18:54.286Z,97398.97
2023-11-13T06:21:20.852Z,97390.47
2023-11-13T06:23:47.215Z,97393.03
2023-11-13T06:26:16.491Z,97379.00
2023-11-13T06:28:42.987Z,97385.72
2023-11-13T06:31:12.471Z,97375.69
2023-11-13T06:33:39.189Z,97370.34
2023-11-13T06:36:11.598Z,97376.00
2023-11-13T06:38:38.043Z,97375.25
2023-11-13T06:41:05.536Z,97366.84
2023-11-13T06:43:32.399Z,97370.88
2023-11-13T06:46:03.462Z,97365.22
2023-11-13T06:48:34.196Z,97354.97
2023-11-13T06:51:01.021Z,97346.72
2023-11-13T06:53:27.870Z,97345.25
2023-11-13T06:55:54.371Z,97350.09
2023-11-13T06:58:23.368Z,97340.25
2023-11-13T07:00:50.954Z,97349.63
2023-11-13T07:03:19.377Z,97341.38
2023-11-13T07:05:47.097Z,97339.91
2023-11-13T07:08:14.572Z,97343.59
2023-11-13T07:10:44.427Z,97339.38
2023-11-13T07:13:12.810Z,97346.66
2023-11-13T07:15:39.489Z,97331.31
2023-11-13T07:18:06.375Z,97332.59
2023-11-13T07:20:33.921Z,97331.28
2023-11-13T07:23:00.330Z,97325.56
2023-11-13T07:25:26.740Z,97337.47
2023-11-13T07:27:53.500Z,97340.03
2023-11-13T07:30:19.960Z,97339.03
2023-11-13T07:32:46.379Z,97348.19
2023-11-13T07:35:12.891Z,97338.13
2023-11-13T07:37:39.296Z,97351.81
2023-11-13T07:40:11.414Z,97350.75
2023-11-13T07:42:37.942Z,97348.16
2023-11-13T07:45:05.009Z,97343.44
2023-11-13T07:47:31.478Z,97340.50
2023-11-13T07:50:00.784Z,97332.38
2023-11-13T07:52:28.248Z,97330.44
2023-11-13T07:54:55.920Z,97320.34
2023-11-13T07:57:22.660Z,97317.25
2023-11-13T07:59:49.318Z,97318.38
2023-11-13T08:02:16.467Z,97315.31
2023-11-13T08:04:42.904Z,97323.56
2023-11-13T08:07:17.326Z,97318.19
2023-11-13T08:09:49.839Z,97327.44
2023-11-13T08:12:16.230Z,97327.69
2023-11-13T08:14:42.968Z,97318.66
2023-11-13T08:17:09.552Z,97316.38
2023-11-13T08:19:36.148Z,97308.56
2023-11-13T08:22:03.147Z,97304.22
2023-11-13T08:24:31.086Z,97301.47
2023-11-13T08:26:57.466Z,97296.19
2023-11-13T08:29:25.664Z,97289.53
2023-11-13T08:31:52.124Z,97288.75
2023-11-13T08:34:20.605Z,97273.97
2023-11-13T08:36:47.035Z,97278.41
2023-11-13T08:39:18.118Z,97269.28
2023-11-13T08:41:45.027Z,97270.84
2023-11-13T08:44:12.488Z,97271.22
2023-11-13T08:46:39.056Z,97264.91
2023-11-13T08:49:07.526Z,97273.72
2023-11-13T08:51:35.178Z,97263.53
2023-11-13T08:54:01.566Z,97270.41
2023-11-13T08:56:28.134Z,97266.88
2023-11-13T08:58:55.294Z,97268.72
2023-11-13T09:01:27.068Z,97272.72
2023-11-13T09:03:55.500Z,97273.16
2023-11-13T09:06:22.103Z,97264.13
2023-11-13T09:08:49.563Z,97261.94
2023-11-13T09:11:17.966Z,97249.78
2023-11-13T09:13:47.804Z,97229.84
2023-11-13T09:16:15.539Z,97234.34
2023-11-13T09:18:42.541Z,97230.19
2023-11-13T09:21:08.978Z,97227.78
2023-11-13T09:23:37.715Z,97235.81
2023-11-13T09:26:05.664Z,97247.50
2023-11-13T09:28:34.540Z,97253.81
2023-11-13T09:31:01.408Z,97253.00
2023-11-13T09:33:29.517Z,97253.94
2023-11-13T09:35:56.117Z,97260.25
2023-11-13T09:38:22.491Z,97262.66
2023-11-13T09:40:48.903Z,97261.84
2023-11-13T09:43:16.845Z,97258.72
2023-11-13T09:45:45.315Z,97259.19
2023-11-13T09:48:12.444Z,97256.78
2023-11-13T09:50:39.252Z,97258.84
2023-11-13T09:53:05.693Z,97262.75
2023-11-13T09:55:32.120Z,97262.41
2023-11-13T09:58:02.062Z,97250.72
2023-11-13T10:00:31.355Z,97266.63
2023-11-13T10:02:57.767Z,97257.91
2023-11-13T10:05:31.426Z,97270.19
2023-11-13T10:07:58.430Z,97266.06
2023-11-13T10:10:28.529Z,97266.53
2023-11-13T10:12:55.667Z,97257.47
2023-11-13T10:15:28.673Z,97266.31
2023-11-13T10:17:57.922Z,97259.66
2023-11-13T10:20:24.796Z,97251.03
2023-11-13T10:23:01.445Z,97253.09
2023-11-13T10:25:28.610Z,97248.41
2023-11-13T10:28:02.460Z,97257.47
2023-11-13T10:30:28.899Z,97238.06
2023-11-13T10:32:55.564Z,97228.91
2023-11-13T10:35:28.887Z,97223.84
2023-11-13T10:37:56.349Z,97218.81
2023-11-13T10:40:32.503Z,97223.63
2023-11-13T10:42:59.008Z,97213.31
2023-11-13T10:45:25.387Z,97204.81
2023-11-13T10:47:53.243Z,97200.88
2023-11-13T10:50:20.849Z,97186.44
2023-11-13T10:52:47.799Z,97181.50
2023-11-13T10:55:14.191Z,97174.59
2023-11-13T10:57:40.884Z,97173.97
2023-11-13T11:00:13.481Z,97166.88
2023-11-13T11:02:46.439Z,97164.56
2023-11-13T11:05:23.459Z,97150.78
2023-11-13T11:07:56.970Z,97143.50
2023-11-13T11:10:29.014Z,97134.00
2023-11-13T11:13:01.571Z,97126.09
2023-11-13T11:15:36.056Z,97115.25
2023-11-13T11:18:14.701Z,97113.66
2023-11-13T11:21:11.233Z,97100.00
2023-11-13T11:23:40.184Z,97101.75
2023-11-13T11:26:07.042Z,97085.59
2023-11-13T11:28:46.695Z,97084.06
2023-11-13T11:31:33.790Z,97075.38
2023-11-13T11:34:00.586Z,97077.06
2023-11-13T11:36:32.014Z,97073.59
2023-11-13T11:39:20.439Z,97055.22
2023-11-13T11:41:47.230Z,97057.06
2023-11-13T11:44:14.511Z,97052.16
2023-11-13T11:46:52.418Z,97056.53
2023-11-13T11:49:26.770Z,97053.50
2023-11-13T11:52:12.622Z,97051.28
2023-11-13T11:54:39.962Z,97045.25
2023-11-13T11:57:08.650Z,97042.13
2023-11-13T11:59:35.743Z,97030.41
2023-11-13T12:02:05.407Z,97019.03
2023-11-13T12:04:32.229Z,97012.19
2023-11-13T12:07:02.980Z,97000.34
2023-11-13T12:09:29.503Z,96989.44
2023-11-13T12:11:56.039Z,96980.44
2023-11-13T12:14:22.515Z,96967.56
2023-11-13T12:16:51.786Z,96957.34
2023-11-13T12:19:18.267Z,96954.63
2023-11-13T12:21:45.019Z,96957.47
2023-11-13T12:24:11.951Z,96952.94
2023-11-13T12:26:39.221Z,96948.47
2023-11-13T12:29:13.336Z,96945.78
2023-11-13T12:31:39.774Z,96944.34
2023-11-13T12:34:06.461Z,96924.16
2023-11-13T12:36:32.868Z,96915.53
2023-11-13T12:39:02.141Z,96903.00
2023-11-13T12:41:28.494Z,96901.47
2023-11-13T12:43:54.880Z,96901.47
2023-11-13T12:46:24.515Z,96901.16
2023-11-13T12:48:52.217Z,96886.94
2023-11-13T12:51:18.687Z,96892.88
2023-11-13T12:53:48.596Z,96888.25
2023-11-13T12:56:15.401Z,96874.09
2023-11-13T12:58:41.841Z,96865.09
2023-11-13T13:01:08.432Z,96859.28
2023-11-13T13:03:36.145Z,96869.66
2023-11-13T13:06:04.124Z,96863.41
2023-11-13T13:08:31.386Z,96841.69
2023-11-13T13:10:59.515Z,96842.94
2023-11-13T13:13:25.946Z,96837.84
2023-11-13T13:15:52.405Z,96831.19
2023-11-13T13:18:18.772Z,96818.09
2023-11-13T13:20:45.554Z,96815.78
2023-11-13T13:23:11.961Z,96800.50
2023-11-13T13:25:38.684Z,96802.97
2023-11-13T13:28:05.640Z,96798.69
2023-11-13T13:30:37.648Z,96793.53
2023-11-13T13:33:10.998Z,96786.13
2023-11-13T13:35:38.424Z,96787.34
2023-11-13T13:38:07.685Z,96777.03
2023-11-13T13:40:34.458Z,96768.41
2023-11-13T13:43:01.623Z,96759.31
2023-11-13T13:45:28.766Z,96743.13
2023-11-13T13:47:55.453Z,96727.06
2023-11-13T13:50:22.388Z,96726.69
2023-11-13T13:52:58.547Z,96701.84
2023-11-13T13:55:29.057Z,96698.75
2023-11-13T13:57:57.972Z,96690.59
2023-11-13T14:00:35.770Z,96675.69
2023-11-13T14:03:06.592Z,96631.94
2023-11-13T14:05:37.020Z,96640.25
2023-11-13T14:08:05.058Z,96645.88
2023-11-13T14:10:40.695Z,96623.44
2023-11-13T14:13:07.468Z,96631.03
2023-11-13T14:15:34.094Z,96629.50
2023-11-13T14:18:01.226Z,96629.91
2023-11-13T14:20:28.382Z,96622.84
2023-11-13T14:22:59.875Z,96621.75
2023-11-13T14:25:28.024Z,96613.50
2023-11-13T14:27:54.924Z,96611.94
2023-11-13T14:30:30.325Z,96609.97
2023-11-13T14:32:59.183Z,96622.66
2023-11-13T14:35:27.152Z,96628.16
2023-11-13T14:37:53.899Z,96641.66
2023-11-13T14:40:20.540Z,96643.63
2023-11-13T14:42:46.984Z,96658.56
2023-11-13T14:45:13.927Z,96651.00
2023-11-13T14:47:41.589Z,96601.28
2023-11-13T14:50:09.103Z,96591.41
2023-11-13T14:52:41.950Z,96557.53
2023-11-13T14:55:09.160Z,96569.75
2023-11-13T14:57:35.564Z,96570.63
2023-11-13T15:00:02.053Z,96553.34
2023-11-13T15:02:28.589Z,96550.63
2023-11-13T15:04:55.134Z,96555.81
2023-11-13T15:07:21.587Z,96561.69
2023-11-13T15:09:48.023Z,96562.09
2023-11-13T15:12:14.683Z,96546.34
2023-11-13T15:14:41.414Z,96553.09
2023-11-13T15:17:08.231Z,96560.66
2023-11-13T15:19:35.399Z,96563.81
2023-11-13T15:22:01.907Z,96560.34
2023-11-13T15:24:28.590Z,96568.22
2023-11-13T15:26:55.389Z,96572.94
2023-11-13T15:29:22.435Z,96571.78
2023-11-13T15:31:49.610Z,96577.72
2023-11-13T15:34:24.195Z,96564.31
2023-11-13T15:36:55.410Z,96553.25
2023-11-13T15:39:21.768Z,96532.69
2023-11-13T15:41:48.239Z,96539.44
2023-11-13T15:44:14.606Z,96544.56
2023-11-13T15:46:43.600Z,96541.06
2023-11-13T15:49:10.553Z,96545.41
2023-11-13T15:51:37.804Z,96558.88
2023-11-13T15:54:04.199Z,96554.94
2023-11-13T15:56:30.980Z,96563.34
2023-11-13T15:58:57.394Z,96567.28
2023-11-13T16:01:23.879Z,96562.56
2023-11-13T16:03:50.799Z,96560.19
2023-11-13T16:06:17.317Z,96588.63
2023-11-13T16:08:43.953Z,96588.63
2023-11-13T16:11:10.762Z,96586.28
2023-11-13T16:13:37.255Z,96566.56
2023-11-13T16:16:03.878Z,96557.47
2023-11-13T16:18:31.243Z,96558.22
2023-11-13T16:20:57.656Z,96562.72
2023-11-13T16:23:24.073Z,96567.06
2023-11-13T16:25:55.276Z,96548.91
2023-11-13T16:28:22.980Z,96561.97
2023-11-13T16:30:49.550Z,96559.22
2023-11-13T16:33:16.029Z,96565.56
2023-11-13T16:35:45.368Z,96594.47
2023-11-13T16:38:12.863Z,96620.50
2023-11-13T16:40:40.028Z,96615.81
2023-11-13T16:43:06.715Z,96611.59
2023-11-13T16:45:33.461Z,96632.59
2023-11-13T16:48:01.078Z,96636.91
2023-11-13T16:50:27.866Z,96635.78
2023-11-13T16:52:54.413Z,96652.78
2023-11-13T16:55:20.877Z,96652.34
2023-11-13T16:57:47.258Z,96652.31
2023-11-13T17:00:13.928Z,96630.16
2023-11-13T17:02:50.634Z,96619.53
2023-11-13T17:05:17.897Z,96612.41
2023-11-13T17:07:45.179Z,96623.84
2023-11-13T17:10:12.118Z,96656.25
2023-11-13T17:12:39.128Z,96661.34
2023-11-13T17:15:07.001Z,96667.00
2023-11-13T17:17:33.531Z,96645.72
2023-11-13T17:20:00.719Z,96666.16
2023-11-13T17:22:27.400Z,96659.38
2023-11-13T17:24:53.823Z,96670.53
2023-11-13T17:27:20.766Z,96672.81
2023-11-13T17:29:47.373Z,96672.00
2023-11-13T17:32:15.798Z,96677.63
2023-11-13T17:34:42.322Z,96673.69
2023-11-13T17:37:08.939Z,96691.19
2023-11-13T17:39:35.336Z,96690.78
2023-11-13T17:42:01.709Z,96702.28
2023-11-13T17:44:28.109Z,96695.38
2023-11-13T17:46:54.619Z,96697.41
2023-11-13T17:49:22.929Z,96702.13
2023-11-13T17:51:50.651Z,96701.34
2023-11-13T17:54:17.120Z,96685.50
2023-11-13T17:56:43.528Z,96679.13
2023-11-13T17:59:10.373Z,96693.50
2023-11-13T18:01:39.149Z,96700.22
2023-11-13T18:04:08.754Z,96692.75
2023-11-13T18:06:37.377Z,96710.97
2023-11-13T18:09:04.016Z,96702.22
2023-11-13T18:11:30.406Z,96683.59
2023-11-13T18:13:57.176Z,96686.78
2023-11-13T18:16:23.766Z,96682.81
2023-11-13T18:18:50.229Z,96658.63
2023-11-13T18:21:16.607Z,96648.31
2023-11-13T18:23:42.983Z,96637.63
2023-11-13T18:26:09.399Z,96612.66
2023-11-13T18:28:35.927Z,96565.84
2023-11-13T18:31:02.387Z,96549.97
2023-11-13T18:33:31.629Z,96496.03
2023-11-13T18:35:58.538Z,96484.13
2023-11-13T18:38:25.965Z,96475.41
2023-11-13T18:40:52.654Z,96473.03
2023-11-13T18:43:19.537Z,96465.53
2023-11-13T18:45:50.542Z,96473.06
2023-11-13T18:48:17.083Z,96475.03
2023-11-13T18:50:43.473Z,96466.72
2023-11-13T18:53:10.120Z,96468.31
2023-11-13T18:55:38.074Z,96464.34
2023-11-13T18:58:05.893Z,96483.78
2023-11-13T19:00:32.737Z,96475.06
2023-11-13T19:02:59.228Z,96480.59
2023-11-13T19:05:28.103Z,96486.19
2023-11-13T19:07:54.570Z,96484.97
2023-11-13T19:10:21.548Z,96500.81
2023-11-13T19:12:48.114Z,96494.47
2023-11-13T19:15:14.537Z,96518.66
2023-11-13T19:17:41.101Z,96523.81
2023-11-13T19:20:11.035Z,96543.25
2023-11-13T19:22:37.680Z,96557.91
2023-11-13T19:25:04.721Z,96548.41
2023-11-13T19:27:31.087Z,96540.47
2023-11-13T19:29:57.524Z,96533.34
2023-11-13T19:32:24.423Z,96542.06
2023-11-13T19:38:18.767Z,96548.31
2023-11-13T19:40:45.161Z,96559.41
2023-11-13T19:43:11.508Z,96563.78
2023-11-13T19:45:37.852Z,96559.03
2023-11-13T19:48:04.430Z,96569.72
2023-11-13T19:50:35.209Z,96570.50
2023-11-13T19:53:02.375Z,96569.34
2023-11-13T19:55:29.033Z,96574.06
2023-11-13T19:57:56.182Z,96593.09
2023-11-13T20:00:23.620Z,96595.88
2023-11-13T20:02:51.783Z,96596.66
2023-11-13T20:05:18.507Z,96610.97
2023-11-13T20:07:46.155Z,96617.72
2023-11-13T20:10:12.926Z,96604.97
2023-11-13T20:12:39.469Z,96597.81
2023-11-13T20:15:07.809Z,96604.53
2023-11-13T20:17:34.539Z,96594.25
2023-11-13T20:20:01.010Z,96591.84
2023-11-13T20:22:27.434Z,96584.75
2023-11-13T20:24:53.786Z,96591.50
2023-11-13T20:27:21.726Z,96592.63
2023-11-13T20:29:48.100Z,96596.56
2023-11-13T20:32:14.665Z,96597.78
2023-11-13T20:34:41.545Z,96583.19
2023-11-13T20:37:08.290Z,96587.91
2023-11-13T20:39:34.708Z,96609.28
2023-11-13T20:42:01.140Z,96599.78
2023-11-13T20:44:27.672Z,96612.84
2023-11-13T20:46:54.325Z,96612.88
2023-11-13T20:49:22.595Z,96591.50
2023-11-13T20:51:49.511Z,96615.63
2023-11-13T20:54:15.883Z,96602.97
2023-11-13T20:56:42.228Z,96600.19
2023-11-13T20:59:08.664Z,96605.72
2023-11-13T21:01:35.111Z,96596.59
2023-11-13T21:04:01.583Z,96605.66
2023-11-13T21:06:28.005Z,96612.41
2023-11-13T21:08:54.919Z,96603.31
2023-11-13T21:11:21.335Z,96606.84
2023-11-13T21:13:47.784Z,96602.84
2023-11-13T21:16:14.148Z,96597.72
2023-11-13T21:18:40.524Z,96610.72
2023-11-13T21:21:06.874Z,96603.63
2023-11-13T21:23:33.259Z,96618.25
2023-11-13T21:26:01.899Z,96619.41
2023-11-13T21:28:28.379Z,96610.66
2023-11-13T21:30:55.810Z,96624.53
2023-11-13T21:33:22.475Z,96624.88
2023-11-13T21:35:49.093Z,96616.47
2023-11-13T21:38:15.588Z,96626.72
2023-11-13T21:40:43.523Z,96622.41
2023-11-13T21:43:10.901Z,96618.03
2023-11-13T21:45:38.673Z,96615.31
2023-11-13T21:48:05.224Z,96627.59
2023-11-13T21:50:31.620Z,96631.88
2023-11-13T21:52:58.040Z,96626.88
2023-11-13T21:55:25.954Z,96636.34
2023-11-13T21:57:52.437Z,96640.72
2023-11-13T22:00:18.828Z,96641.88
2023-11-13T22:02:45.485Z,96635.97
2023-11-13T22:05:12.031Z,96651.78
2023-11-13T22:07:40.803Z,96653.00
2023-11-13T22:10:08.404Z,96652.63
2023-11-13T22:12:35.004Z,96657.78
2023-11-13T22:15:07.359Z,96656.63
2023-11-13T22:17:34.123Z,96665.63
2023-11-13T22:20:01.684Z,96666.84
2023-11-13T22:22:28.546Z,96666.84
2023-11-13T22:24:56.320Z,96671.16
2023-11-13T22:27:22.750Z,96667.63
2023-11-13T22:29:49.123Z,96670.81
2023-11-13T22:32:15.577Z,96684.28
2023-11-13T22:34:42.444Z,96686.69
2023-11-13T22:37:08.896Z,96692.22
2023-11-13T22:39:35.262Z,96692.56
2023-11-13T22:42:03.541Z,96691.38
2023-11-13T22:44:30.456Z,96682.66
2023-11-13T22:46:57.002Z,96675.53
2023-11-13T22:49:23.822Z,96687.84
2023-11-13T22:51:50.262Z,96691.41
2023-11-13T22:54:16.642Z,96676.34
2023-11-13T22:56:44.257Z,96670.03
2023-11-13T22:59:10.658Z,96676.81
2023-11-13T23:01:37.495Z,96681.06
2023-11-13T23:04:05.722Z,96667.69
2023-11-13T23:06:33.967Z,96669.31
2023-11-13T23:09:00.405Z,96672.06
2023-11-13T23:11:27.041Z,96683.50
2023-11-13T23:13:57.244Z,96671.22
2023-11-13T23:16:23.996Z,96667.63
2023-11-13T23:18:50.526Z,96662.97
2023-11-13T23:21:19.059Z,96669.66
2023-11-13T23:23:45.485Z,96664.53
2023-11-13T23:26:11.854Z,96669.28
2023-11-13T23:28:38.265Z,96672.88
2023-11-13T23:31:04.770Z,96662.91
2023-11-13T23:33:31.163Z,96659.81
2023-11-13T23:35:57.548Z,96669.69
2023-11-13T23:38:25.204Z,96669.31
2023-11-13T23:40:51.740Z,96663.34
2023-11-13T23:43:18.278Z,96642.41
2023-11-13T23:45:46.006Z,96660.19
2023-11-13T23:48:14.141Z,96664.16
2023-11-13T23:50:43.570Z,96663.72
2023-11-13T23:53:11.250Z,96658.97
2023-11-13T23:55:37.685Z,96665.75
2023-11-13T23:58:04.141Z,96656.63
